Time;durP1;ratioP1;P1;durP2;ratioP2;P2;SDS_P1;SDS_P2;PMS_P1;PMS_P2;Temp;Humidity;BMP_temperature;BMP_pressure;BME280_temperature;BME280_humidity;BME280_pressure;Samples;Min_cycle;Max_cycle;Signal;HPM_P1;HPM_P2
2022/12/26 00:00:44;;;;;;;11.77;6.28;;;;;;;1.17;52.28;100735.94;4851818;29;20041;-94
2022/12/26 00:03:15;;;;;;;14.13;6.70;;;;;;;1.39;51.88;100773.31;4851961;29;20066;-93
2022/12/26 00:05:43;;;;;;;15.25;6.63;;;;;;;1.43;52.44;100782.66;4863153;23;20037;-94
2022/12/26 00:08:09;;;;;;;16.37;7.50;;;;;;;1.29;52.45;100754.97;4824918;29;20050;-92
2022/12/26 00:10:35;;;;;;;14.23;6.40;;;;;;;1.22;52.30;100750.63;4810379;29;20291;-95
2022/12/26 00:13:04;;;;;;;13.13;6.95;;;;;;;1.16;52.90;100742.38;4815358;29;20050;-92
2022/12/26 00:15:42;;;;;;;12.68;6.80;;;;;;;1.31;53.27;100760.13;4807086;29;20085;-91
2022/12/26 00:18:08;;;;;;;14.57;6.38;;;;;;;0.90;52.48;100691.38;4829642;29;20080;-91
2022/12/26 00:20:34;;;;;;;15.65;7.00;;;;;;;1.02;52.63;100721.94;4810704;29;20038;-95
2022/12/26 00:23:01;;;;;;;18.10;7.38;;;;;;;1.41;52.87;100773.94;4834999;29;20076;-94
2022/12/26 00:25:33;;;;;;;16.77;6.63;;;;;;;0.99;52.87;100714.28;4830670;29;20042;-94
2022/12/26 00:28:02;;;;;;;11.85;6.03;;;;;;;0.94;51.87;100714.94;4848373;29;20326;-94
2022/12/26 00:30:31;;;;;;;14.85;6.45;;;;;;;0.85;52.57;100701.94;4818857;29;20156;-94
2022/12/26 00:32:57;;;;;;;10.88;6.40;;;;;;;1.21;52.63;100773.22;4830927;29;20053;-92
2022/12/26 00:35:24;;;;;;;13.05;6.78;;;;;;;1.55;52.62;100818.63;4813936;29;20040;-94
2022/12/26 00:37:51;;;;;;;13.02;6.72;;;;;;;1.35;52.68;100804.44;4814544;29;20110;-93
2022/12/26 00:40:21;;;;;;;17.05;6.72;;;;;;;0.88;52.38;100725.75;4812152;29;20083;-95
2022/12/26 00:42:47;;;;;;;14.18;6.78;;;;;;;1.40;52.25;100802.75;4796881;29;20054;-94
2022/12/26 00:45:18;;;;;;;10.52;7.00;;;;;;;1.65;52.32;100837.84;4794028;29;20058;-92
2022/12/26 00:47:45;;;;;;;16.45;6.60;;;;;;;1.64;52.38;100846.97;4810841;29;20074;-94
2022/12/26 00:50:13;;;;;;;13.48;6.35;;;;;;;1.24;51.89;100770.94;4779468;29;20039;-91
2022/12/26 00:52:40;;;;;;;15.07;6.78;;;;;;;1.08;52.55;100750.69;4775915;29;20057;-92
2022/12/26 00:55:10;;;;;;;13.93;6.85;;;;;;;1.37;52.30;100794.28;4777545;29;20043;-96
2022/12/26 00:57:39;;;;;;;13.00;7.07;;;;;;;1.52;52.32;100810.97;4805557;29;20123;-92
2022/12/26 01:00:08;;;;;;;15.30;6.47;;;;;;;1.15;52.00;100756.88;4785895;29;20054;-95
2022/12/26 01:02:53;;;;;;;;;;;;;;;;;;;;;
2022/12/26 01:05:20;;;;;;;14.50;6.68;;;;;;;1.48;52.26;100819.72;4777780;30;20058;-95
2022/12/26 01:07:54;;;;;;;12.95;7.10;;;;;;;1.36;52.32;100798.84;4757041;30;20048;-92
2022/12/26 01:10:23;;;;;;;16.27;6.95;;;;;;;1.76;52.20;100866.00;4771571;30;20039;-94
2022/12/26 01:12:52;;;;;;;15.98;7.20;;;;;;;1.74;52.49;100865.38;4771226;30;20051;-93
2022/12/26 01:15:22;;;;;;;12.77;6.93;;;;;;;1.80;52.31;100855.59;4782650;30;20043;-93
2022/12/26 01:17:56;;;;;;;13.95;7.47;;;;;;;1.54;52.32;100814.28;4792221;29;20054;-93
2022/12/26 01:20:25;;;;;;;15.35;7.13;;;;;;;1.39;51.75;100784.09;4790288;29;20183;-94
2022/12/26 01:23:35;;;;;;;14.55;7.32;;;;;;;1.16;52.05;100772.03;4826469;29;20038;-94
2022/12/26 01:26:04;;;;;;;14.50;7.15;;;;;;;1.17;51.94;100770.97;4797958;29;20131;-94
2022/12/26 01:28:33;;;;;;;15.25;7.32;;;;;;;1.61;51.74;100842.00;4806453;29;20042;-94
2022/12/26 01:31:02;;;;;;;19.98;7.65;;;;;;;1.20;52.16;100766.19;4798147;29;20095;-95
2022/12/26 01:33:28;;;;;;;15.18;6.90;;;;;;;1.55;52.03;100815.94;4784995;29;20549;-91
2022/12/26 01:35:57;;;;;;;10.32;5.47;;;;;;;1.21;52.00;100762.47;4785701;29;20526;-93
2022/12/26 01:38:25;;;;;;;16.60;6.50;;;;;;;1.22;51.82;100756.84;4787867;29;20058;-94
2022/12/26 01:41:15;;;;;;;13.88;6.82;;;;;;;1.50;51.85;100813.06;4787309;29;20542;-94
2022/12/26 01:43:59;;;;;;;15.02;7.13;;;;;;;1.84;52.04;100864.91;4812657;29;20046;-96
2022/12/26 01:46:31;;;;;;;14.60;7.03;;;;;;;1.43;52.20;100792.59;4783100;29;20581;-94
2022/12/26 01:49:03;;;;;;;15.32;7.35;;;;;;;1.34;51.54;100800.09;4818750;29;20144;-93
2022/12/26 01:51:34;;;;;;;19.08;7.15;;;;;;;1.54;52.04;100833.16;4828262;29;20073;-95
2022/12/26 01:54:05;;;;;;;13.55;6.72;;;;;;;1.52;52.37;100831.69;4807528;29;20054;-95
2022/12/26 01:56:37;;;;;;;15.63;6.72;;;;;;;1.35;52.48;100804.44;4813513;29;20050;-93
2022/12/26 01:59:22;;;;;;;10.32;6.10;;;;;;;1.36;51.94;100812.31;4767812;29;20587;-93
2022/12/26 02:01:51;;;;;;;15.85;6.70;;;;;;;1.76;52.34;100868.69;4779854;29;20055;-94
2022/12/26 02:07:13;;;;;;;11.20;6.65;;;;;;;1.81;51.97;100876.13;4832427;29;20047;-92
2022/12/26 02:09:45;;;;;;;15.32;6.82;;;;;;;1.24;52.25;100770.94;4865905;23;20067;-93
2022/12/26 02:12:33;;;;;;;11.32;6.45;;;;;;;1.60;51.61;100826.91;4958993;24;20064;-95
2022/12/26 02:15:22;;;;;;;15.05;6.18;;;;;;;1.83;52.52;100869.47;4873461;29;20022;-94
2022/12/26 02:17:51;;;;;;;11.27;6.20;;;;;;;1.18;51.52;100767.22;4856272;29;20025;-93
2022/12/26 02:24:15;;;;;;;12.45;6.65;;;;;;;1.77;51.16;100850.66;5056566;23;20019;-93
2022/12/26 02:27:08;;;;;;;11.05;5.72;;;;;;;1.13;52.67;100752.78;4887440;29;20048;-93
2022/12/26 02:29:56;;;;;;;13.23;6.28;;;;;;;1.67;52.22;100853.00;4876328;29;20045;-93
2022/12/26 02:32:42;;;;;;;;;;;;;;;;;;;;;
2022/12/26 02:39:29;;;;;;;14.30;6.97;;;;;;;1.71;52.28;100852.31;4690841;23;7945526;-92
2022/12/26 02:42:30;;;;;;;19.05;6.70;;;;;;;1.21;52.10;100784.81;4868131;29;20042;-94
2022/12/26 02:48:22;;;;;;;12.25;6.55;;;;;;;1.72;52.38;100858.53;4863542;29;20046;-94
2022/12/26 03:18:40;;;;;;;11.00;5.05;;;;;;;1.05;51.81;100750.31;4862243;29;20047;-93
2022/12/26 03:21:08;;;;;;;9.95;5.35;;;;;;;1.07;51.53;100753.63;4857069;29;20392;-92
2022/12/26 03:23:39;;;;;;;8.43;4.50;;;;;;;1.39;51.93;100821.81;4857740;29;20059;-95
2022/12/26 03:31:46;;;;;;;9.27;4.13;;;;;;;0.99;51.50;100757.38;4872756;29;20045;-96
2022/12/26 03:34:18;;;;;;;9.48;4.40;;;;;;;1.13;51.42;100777.00;4855672;29;20040;-91
2022/12/26 03:37:22;;;;;;;7.00;3.92;;;;;;;1.79;51.04;100873.66;4857294;29;20048;-95
2022/12/26 04:19:25;;;;;;;4.53;2.60;;;;;;;1.31;49.88;100840.94;4811454;29;20061;-91
2022/12/26 04:46:10;;;;;;;9.18;4.10;;;;;;;0.68;52.11;100802.00;4877776;29;20086;-93
2022/12/26 04:52:53;;;;;;;13.80;3.72;;;;;;;0.46;52.11;100795.22;4898328;29;20064;-93
2022/12/26 04:55:35;;;;;;;8.70;4.07;;;;;;;0.41;52.68;100793.19;4885602;29;20044;-93
2022/12/26 04:58:03;;;;;;;7.35;4.07;;;;;;;0.35;52.06;100810.16;4851196;29;20048;-92
2022/12/26 05:00:34;;;;;;;11.32;4.32;;;;;;;0.40;52.19;100823.81;4857155;29;20048;-94
2022/12/26 05:31:52;;;;;;;8.30;4.05;;;;;;;-0.09;54.31;100851.94;5064961;23;20056;-92
2022/12/26 05:34:46;;;;;;;9.30;4.43;;;;;;;0.35;54.03;100917.75;4870197;29;20072;-93
2022/12/26 05:40:25;;;;;;;8.35;3.88;;;;;;;-0.15;52.99;100851.94;4965396;23;20619;-93
2022/12/26 05:42:54;;;;;;;7.25;3.70;;;;;;;-0.03;53.65;100877.19;4896050;29;20094;-94
2022/12/26 05:45:21;;;;;;;7.35;4.00;;;;;;;-0.14;53.75;100850.91;4896975;29;20139;-94
2022/12/26 05:47:48;;;;;;;8.00;4.03;;;;;;;0.17;53.15;100918.38;4897968;29;20112;-92
2022/12/26 05:50:15;;;;;;;9.18;4.05;;;;;;;-0.55;53.43;100790.91;4863436;29;20064;-93
2022/12/26 05:52:42;;;;;;;11.32;4.15;;;;;;;-0.11;52.78;100853.19;4894089;29;20048;-94
2022/12/26 05:55:18;;;;;;;5.38;4.00;;;;;;;0.02;52.62;100857.75;4893616;29;20045;-93
2022/12/26 05:58:36;;;;;;;10.30;5.25;;;;;;;0.41;52.95;100926.88;4913888;29;20498;-93
2022/12/26 06:01:08;;;;;;;9.68;4.45;;;;;;;0.16;52.73;100888.97;4898368;29;20076;-93
2022/12/26 06:03:57;;;;;;;10.32;4.07;;;;;;;-0.31;52.54;100827.09;4866000;24;20072;-93
2022/12/26 06:06:27;;;;;;;6.65;3.45;;;;;;;-0.38;52.28;100836.19;4809969;29;20097;-95
2022/12/26 06:08:55;;;;;;;6.20;4.00;;;;;;;-0.51;53.41;100808.25;4826306;29;20240;-94
2022/12/26 06:11:25;;;;;;;6.20;2.80;;;;;;;-0.48;52.49;100818.59;4828151;29;20046;-94
2022/12/26 07:24:36;;;;;;;4.93;2.40;;;;;;;0.64;51.66;100994.56;4871904;23;20064;-94
2022/12/26 07:27:54;;;;;;;5.55;2.72;;;;;;;0.30;51.15;100948.97;4981465;23;20052;-94
2022/12/26 07:30:22;;;;;;;8.15;3.08;;;;;;;0.43;51.90;100962.44;4885376;29;20048;-93
2022/12/26 07:36:11;;;;;;;7.03;3.05;;;;;;;0.54;50.86;100948.41;4864105;29;20082;-93
2022/12/26 07:38:38;;;;;;;5.95;3.28;;;;;;;0.35;51.37;100925.81;4864756;29;20072;-94
2022/12/26 07:48:02;;;;;;;7.10;3.00;;;;;;;0.78;51.64;100991.88;4952289;23;20089;-94
2022/12/26 07:50:28;;;;;;;9.55;3.47;;;;;;;0.08;52.07;100887.31;4868174;29;20048;-95
2022/12/26 07:52:56;;;;;;;8.93;3.97;;;;;;;0.15;52.13;100893.53;4878732;29;20052;-95
2022/12/26 07:56:16;;;;;;;7.28;3.13;;;;;;;0.94;51.74;101010.31;4863927;29;20045;-95
2022/12/26 07:58:50;;;;;;;7.18;2.80;;;;;;;0.55;51.30;100935.75;4882560;29;20033;-96
2022/12/26 08:01:18;;;;;;;7.45;3.35;;;;;;;0.60;51.14;100928.75;4885614;23;20156;-93
2022/12/26 08:03:50;;;;;;;7.75;3.50;;;;;;;0.78;51.71;101006.16;4863188;29;20519;-93
2022/12/26 08:19:01;;;;;;;5.95;3.38;;;;;;;0.97;51.22;101012.59;5029655;23;20064;31
2022/12/26 08:21:54;;;;;;;8.70;3.67;;;;;;;0.86;51.91;101011.34;4813815;29;20115;-93
2022/12/26 08:24:46;;;;;;;5.53;3.17;;;;;;;0.53;51.45;100972.81;4808184;29;20525;-94
2022/12/26 08:27:16;;;;;;;9.20;3.30;;;;;;;-0.07;51.41;100878.59;4846734;24;20160;-93
2022/12/26 08:30:32;;;;;;;6.20;3.67;;;;;;;0.79;51.44;101015.88;4844299;29;20098;-95
2022/12/26 08:41:54;;;;;;;5.07;2.97;;;;;;;0.72;50.97;100987.31;4892518;29;20064;-94
2022/12/26 08:44:45;;;;;;;9.73;3.60;;;;;;;0.21;51.09;100890.03;4837295;29;20058;-95
2022/12/26 08:50:22;;;;;;;10.18;3.55;;;;;;;0.39;51.63;100920.84;4823705;29;20062;-94
2022/12/26 08:52:49;;;;;;;6.57;3.70;;;;;;;0.50;51.60;100949.84;4812352;29;20117;-95
2022/12/26 08:59:36;;;;;;;12.50;3.65;;;;;;;0.77;52.00;100991.06;4859516;29;20049;-94
2022/12/26 09:02:05;;;;;;;10.02;4.20;;;;;;;0.69;51.88;100969.72;4841602;29;20064;-94
2022/12/26 09:11:27;;;;;;;8.40;3.40;;;;;;;0.65;51.82;100966.59;5471597;23;20028;-94
2022/12/26 09:36:16;;;;;;;7.15;3.75;;;;;;;0.83;51.81;101010.91;4990648;23;20064;-96
2022/12/26 09:39:00;;;;;;;4.70;2.45;;;;;;;0.47;50.91;100936.81;5123502;23;20060;-93
2022/12/26 09:52:28;;;;;;;4.38;2.60;;;;;;;0.74;50.22;100972.63;4805226;30;20078;-94
2022/12/26 09:56:04;;;;;;;5.75;2.90;;;;;;;1.18;50.16;100993.50;4821817;29;20026;-94
2022/12/26 10:01:37;;;;;;;6.97;2.85;;;;;;;0.75;49.97;100939.28;5050371;23;20056;-95
2022/12/26 10:04:28;;;;;;;8.73;3.08;;;;;;;1.00;50.03;100955.63;4903544;29;20116;-94
2022/12/26 10:07:27;;;;;;;7.70;2.83;;;;;;;1.28;49.73;100984.97;4872833;29;20059;-94
2022/12/26 10:11:01;;;;;;;30.17;7.40;;;;;;;1.38;49.62;100979.97;1168893;23;20290;-91
2022/12/26 10:13:59;;;;;;;27.45;5.70;;;;;;;1.23;50.41;100978.59;4885749;29;20120;-92
2022/12/26 10:17:01;;;;;;;4.28;2.40;;;;;;;1.27;49.92;100972.56;4887106;29;20074;-93
2022/12/26 10:29:03;;;;;;;6.28;2.95;;;;;;;0.68;51.36;100966.19;1079041;23;20440;-88
2022/12/26 10:32:40;;;;;;;7.78;2.70;;;;;;;0.76;50.61;100932.84;4938526;29;20067;-93
2022/12/26 10:35:59;;;;;;;7.65;2.70;;;;;;;1.01;49.36;100965.34;4909053;29;20072;-93
2022/12/26 10:42:00;;;;;;;9.25;5.05;;;;;;;0.40;50.27;100863.34;5137314;23;20040;-95
2022/12/26 11:03:57;;;;;;;8.48;3.53;;;;;;;0.96;50.99;100949.00;4882196;29;20043;-93
2022/12/26 11:06:37;;;;;;;8.38;3.38;;;;;;;0.53;50.61;100838.25;4864976;29;20052;-92
2022/12/26 11:09:06;;;;;;;10.48;3.05;;;;;;;0.46;50.94;100840.97;4855869;29;20047;-94
2022/12/26 11:11:45;;;;;;;9.73;4.00;;;;;;;1.07;49.63;100937.59;4859203;29;20056;-93
2022/12/26 11:14:34;;;;;;;5.60;3.17;;;;;;;1.12;51.14;100958.47;4830763;29;20129;-93
2022/12/26 11:17:45;;;;;;;10.80;4.00;;;;;;;0.44;51.37;100853.81;4839903;29;20105;-95
2022/12/26 11:21:11;;;;;;;12.35;4.22;;;;;;;0.66;50.54;100892.94;4873988;29;20045;-94
2022/12/26 11:24:27;;;;;;;14.10;3.55;;;;;;;1.13;50.90;100962.84;4810072;29;20055;-93
2022/12/26 11:27:24;;;;;;;12.45;4.40;;;;;;;0.97;50.85;100936.38;4804258;29;20051;-94
2022/12/26 11:46:53;;;;;;;8.30;4.10;;;;;;;0.44;52.21;100878.84;4823527;29;20066;-93
2022/12/26 11:49:28;;;;;;;8.65;3.67;;;;;;;1.02;52.03;100952.69;4839560;29;20136;-95
2022/12/26 11:51:56;;;;;;;8.02;3.70;;;;;;;0.61;52.15;100883.81;4824554;29;20439;-93
2022/12/26 11:54:48;;;;;;;8.20;3.85;;;;;;;0.34;52.02;100846.16;4830901;29;20523;-93
2022/12/26 12:00:46;;;;;;;7.13;4.20;;;;;;;0.23;51.84;100826.13;4967667;23;20056;-93
2022/12/26 12:03:43;;;;;;;9.48;4.32;;;;;;;0.70;52.09;100902.22;4936814;29;20053;-93
2022/12/26 12:07:41;;;;;;;9.55;4.85;;;;;;;0.72;51.68;100912.78;5394775;23;20027;-93
2022/12/26 12:16:51;;;;;;;12.95;5.97;;;;;;;0.32;52.12;100863.53;5407753;23;20060;-93
2022/12/26 12:20:09;;;;;;;17.83;5.72;;;;;;;0.77;52.24;100957.94;4827668;29;20166;-91
2022/12/26 12:29:05;;;;;;;10.95;5.75;;;;;;;0.60;52.50;100955.66;5490540;23;20028;-94
2022/12/26 12:32:33;;;;;;;14.63;6.90;;;;;;;0.14;52.84;100877.63;4905523;29;20060;-95
2022/12/26 12:35:39;;;;;;;11.18;6.32;;;;;;;0.70;53.01;100963.31;4922585;29;20060;-95
2022/12/26 12:38:25;;;;;;;9.65;6.40;;;;;;;0.74;52.24;100952.97;4821642;29;20076;-94
2022/12/26 12:41:34;;;;;;;9.73;5.72;;;;;;;0.55;51.96;100957.28;4791133;29;20055;-94
2022/12/26 12:44:47;;;;;;;11.68;5.78;;;;;;;0.33;52.57;100908.22;4806292;29;20046;-95
2022/12/26 12:51:39;;;;;;;9.60;5.35;;;;;;;-0.08;52.17;100845.53;4819118;29;20068;-94
2022/12/26 12:54:42;;;;;;;8.57;5.15;;;;;;;0.35;52.88;100968.03;4794769;29;20043;-96
2022/12/26 12:58:30;;;;;;;10.48;5.15;;;;;;;-0.43;53.13;100866.38;4813274;29;20055;-93
2022/12/26 13:02:23;;;;;;;9.75;5.10;;;;;;;-0.52;53.20;100846.91;5036642;23;20068;-95
2022/12/26 13:18:51;;;;;;;11.55;4.03;;;;;;;0.31;52.79;100953.34;5950645;23;20022;-90
2022/12/26 13:22:07;;;;;;;5.88;3.75;;;;;;;0.07;53.94;100942.16;4797976;29;20135;-94
2022/12/26 13:25:03;;;;;;;6.78;3.72;;;;;;;0.11;53.01;100924.56;4847219;23;20062;-94
2022/12/26 13:28:21;;;;;;;10.48;4.63;;;;;;;-0.29;52.90;100883.34;4947167;23;20052;-96
2022/12/26 15:13:41;;;;;;;16.40;7.28;;;;;;;-0.34;58.25;100932.28;5185644;23;20168;-94
2022/12/26 15:16:34;;;;;;;11.93;6.70;;;;;;;-0.36;58.00;100941.63;4848057;29;20040;-93
2022/12/26 15:22:45;;;;;;;17.10;7.43;;;;;;;-0.11;57.17;100921.19;5094772;23;20042;-94
2022/12/26 15:25:38;;;;;;;13.32;6.47;;;;;;;-0.07;57.13;100916.25;4805417;29;20147;-95
2022/12/26 15:51:53;;;;;;;10.38;5.22;;;;;;;-0.38;58.61;100927.53;4919213;29;20044;-91
2022/12/26 15:55:23;;;;;;;8.30;4.82;;;;;;;-0.56;58.88;100909.28;4825614;29;20445;-90
2022/12/26 16:04:56;;;;;;;16.48;5.18;;;;;;;-0.64;59.46;100906.78;3912212;23;20023;-90
2022/12/26 16:12:26;;;;;;;11.25;5.25;;;;;;;-0.45;59.54;100903.34;4904870;29;20072;-94
2022/12/26 16:15:59;;;;;;;;;;;;;;;;;;;;;
2022/12/26 16:23:41;;;;;;;7.30;4.78;;;;;;;-1.59;59.60;100779.53;4892966;29;20111;-93
2022/12/26 16:43:16;;;;;;;10.75;5.68;;;;;;;-0.83;58.32;100903.81;5094516;23;20289;-92
2022/12/26 17:39:13;;;;;;;10.60;5.60;;;;;;;-0.47;55.11;100868.59;5160687;23;20060;-92
2022/12/26 17:57:44;;;;;;;20.60;6.93;;;;;;;-0.95;54.66;100758.56;5748946;23;20538;-90
2022/12/26 18:04:04;;;;;;;16.58;6.95;;;;;;;-0.58;54.47;100804.72;5029363;23;20056;-91
2022/12/26 18:06:47;;;;;;;14.57;6.80;;;;;;;-0.83;54.37;100766.03;4906204;29;20085;-94
2022/12/26 18:10:02;;;;;;;16.63;8.05;;;;;;;-0.63;54.72;100796.47;4976539;24;20062;-90
2022/12/26 20:06:47;;;;;;;13.70;4.63;;;;;;;-0.74;56.55;100757.59;5362178;23;20061;-93
2022/12/26 20:37:17;;;;;;;14.73;5.32;;;;;;;-0.83;56.82;100742.72;4899750;29;20057;-94
2022/12/26 20:46:31;;;;;;;8.80;4.40;;;;;;;-0.94;55.61;100708.41;5316908;23;20088;-93
2022/12/26 20:49:58;;;;;;;12.75;4.00;;;;;;;-1.28;55.66;100658.38;4937531;29;20067;-91
